Bookmark and Share
Track history (hours):
 

Forum Star

More information available from US FCC via Universal Licensing System and Coast Guard Vessel Documentation Center.

Last reported at 2014-Feb-17 14:22 UTC. Time now 2014-Apr-24 13:49 UTC.
Position N 54°21' W 130°36'.
Warning: this ship's position is months out of date.

Length 40 m; draft 4.5 m.

Type: Fishing. MMSI: 367084450.

NotesDate/timePositionNaut miles runAvg speedWind from/ knotsBaromVisibWave heightAir tempDewpointWater temp
2014-Feb-17 14:22N 54°21' W 130°36'225 8.9
2014-Feb-16 13:04N 51°00' W 127°47'5 8.9
2014-Feb-16 12:33N 50°57' W 127°43'9 9.1
2014-Feb-16 11:33N 50°51' W 127°31'116 8.9
2014-Feb-15 22:33N 49°50' W 124°56'10 9.6
2014-Feb-15 21:30N 49°43' W 124°45'9 9.8
2014-Feb-15 20:33N 49°36' W 124°35'10 9.9
2014-Feb-15 19:33N 49°29' W 124°24'10 9.6
2014-Feb-15 18:33N 49°24' W 124°12'9 9.4
2014-Feb-15 17:33N 49°20' W 123°59'10 9.7
2014-Feb-15 16:33N 49°15' W 123°46'10 9.7
2014-Feb-15 15:33N 49°09' W 123°35'10 9.6
2014-Feb-15 14:32N 49°01' W 123°26'10 9.8
2014-Feb-15 13:33N 48°53' W 123°18'18 9.1
2014-Feb-15 11:32N 48°35' W 123°13'48 9.7
2014-Feb-15 06:33N 47°56' W 122°30'10 9.6
2014-Feb-15 05:33N 47°47' W 122°26'7 6.9
2014-Feb-15 04:33N 47°40' W 122°24'1 1.0
2014-Feb-15 03:31N 47°39' W 122°23'0 0.0
2014-Feb-15 02:31N 47°39' W 122°23'0 0.0
2014-Feb-15 01:31N 47°39' W 122°23'0 0.0
2014-Feb-15 00:31N 47°39' W 122°23'0 0.0
2014-Feb-14 23:31N 47°39' W 122°23'0 0.0
2014-Feb-14 22:31N 47°39' W 122°23'0 0.0
2014-Feb-14 21:31N 47°39' W 122°23'0 0.0
2014-Feb-14 20:31N 47°39' W 122°23'0 0.0
2014-Feb-14 19:31N 47°39' W 122°23'0 0.0
2014-Feb-14 18:31N 47°39' W 122°23'0 0.0
2014-Feb-14 17:31N 47°39' W 122°23'0 0.0
2014-Feb-14 15:31N 47°39' W 122°23'0 0.0
2014-Feb-14 13:31N 47°39' W 122°23'0 0.0
2014-Feb-14 12:31N 47°39' W 122°23'0 0.0
2014-Feb-14 11:28N 47°39' W 122°23'0 0.0
2014-Feb-14 10:31N 47°39' W 122°23'0 0.0
2014-Feb-14 09:31N 47°39' W 122°23'0 0.0
2014-Feb-14 08:31N 47°39' W 122°23'0 0.0
2014-Feb-14 07:31N 47°39' W 122°23'0 0.0
2014-Feb-14 06:31N 47°39' W 122°23'0 0.0
2014-Feb-14 05:31N 47°39' W 122°23'0 0.0
2014-Feb-14 04:31N 47°39' W 122°23'0 0.0
2014-Feb-14 03:31N 47°39' W 122°23'0 0.0
2014-Feb-14 02:31N 47°39' W 122°23'0 0.0
2014-Feb-14 01:31N 47°39' W 122°23'0 0.0
2014-Feb-14 00:28N 47°39' W 122°23'0 0.0
2014-Feb-13 23:31N 47°39' W 122°23'0 0.0
2014-Feb-13 22:31N 47°39' W 122°23'0 0.0
2014-Feb-13 21:31N 47°39' W 122°23'0 0.0
2014-Feb-13 20:31N 47°39' W 122°23'0 0.0
2014-Feb-13 19:31N 47°39' W 122°23'0 0.0
2014-Feb-13 18:31N 47°39' W 122°23'0 0.0
2014-Feb-13 17:31N 47°39' W 122°23'0 0.0
2014-Feb-13 16:31N 47°39' W 122°23'0 0.0
2014-Feb-13 15:31N 47°39' W 122°23'0 0.0
2014-Feb-13 14:31N 47°39' W 122°23'0 0.0
2014-Feb-13 13:28N 47°39' W 122°23'0 0.0
2014-Feb-13 12:28N 47°39' W 122°23'0 0.0
2014-Feb-13 11:31N 47°39' W 122°23'0 0.0
2014-Feb-13 10:31N 47°39' W 122°23'0 0.0
2014-Feb-13 09:31N 47°39' W 122°23'0 0.0
2014-Feb-13 08:31N 47°39' W 122°23'0 0.0
2014-Feb-13 07:31N 47°39' W 122°23'0 0.0
2014-Feb-13 06:31N 47°39' W 122°23'0 0.0
2014-Feb-13 05:31N 47°39' W 122°23'0 0.0
2014-Feb-13 04:31N 47°39' W 122°23'0 0.0
2014-Feb-13 03:31N 47°39' W 122°23'0 0.0
2014-Feb-13 02:31N 47°39' W 122°23'0 0.0
2014-Feb-13 01:31N 47°39' W 122°23'0 0.0
2014-Feb-13 00:31N 47°39' W 122°23'0 0.0
2014-Feb-12 23:31N 47°39' W 122°23'0 0.0
2014-Feb-12 22:31N 47°39' W 122°23'0 0.0
2014-Feb-12 21:31N 47°39' W 122°23'0 0.0
2014-Feb-12 20:31N 47°39' W 122°23'0 0.0
2014-Feb-12 19:31N 47°39' W 122°23'0 0.0
2014-Feb-12 18:31N 47°39' W 122°23'0 0.0
2014-Feb-12 17:31N 47°39' W 122°23'0 0.0
2014-Feb-12 16:31N 47°39' W 122°23'0 0.0
2014-Feb-12 15:31N 47°39' W 122°23'0 0.0
2014-Feb-12 14:31N 47°39' W 122°23'0 0.0
2014-Feb-12 13:31N 47°39' W 122°23'0 0.0
2014-Feb-12 12:31N 47°39' W 122°23'0 0.0
2014-Feb-12 11:31N 47°39' W 122°23'0 0.0
2014-Feb-12 10:28N 47°39' W 122°23'0 0.0
2014-Feb-12 09:28N 47°39' W 122°23'0 0.0
2014-Feb-12 08:31N 47°39' W 122°23'0 0.0
2014-Feb-12 07:31N 47°39' W 122°23'0 0.0
2014-Feb-12 06:31N 47°39' W 122°23'0 0.0
2014-Feb-12 05:31N 47°39' W 122°23'0 0.0
2014-Feb-12 04:28N 47°39' W 122°23'0 0.0
2014-Feb-12 03:31N 47°39' W 122°23'0 0.0
2014-Feb-12 02:31N 47°39' W 122°23'0 0.0
2014-Feb-12 01:31N 47°39' W 122°23'0 0.0
2014-Feb-12 00:31N 47°39' W 122°23'0 0.0
2014-Feb-11 23:31N 47°39' W 122°23'0 0.0
2014-Feb-11 22:31N 47°39' W 122°23'0 0.0
2014-Feb-11 21:31N 47°39' W 122°23'0 0.0
2014-Feb-11 20:31N 47°39' W 122°23'0 0.0
2014-Feb-11 19:31N 47°39' W 122°23'0 0.0
2014-Feb-11 18:31N 47°39' W 122°23'0 0.0
2014-Feb-11 17:28N 47°39' W 122°23'0 0.0
2014-Feb-11 16:22N 47°39' W 122°23'0 0.0
2014-Feb-11 15:31N 47°39' W 122°23'0 0.0
2014-Feb-11 14:31N 47°39' W 122°23'0 0.0
2014-Feb-11 13:31N 47°39' W 122°23'0 0.0
2014-Feb-11 12:31N 47°39' W 122°23'0 0.0
2014-Feb-11 11:31N 47°39' W 122°23'0 0.0
2014-Feb-11 10:31N 47°39' W 122°23'0 0.0
2014-Feb-11 09:31N 47°39' W 122°23'0 0.0
2014-Feb-11 08:31N 47°39' W 122°23'0 0.0
2014-Feb-11 07:31N 47°39' W 122°23'0 0.0
2014-Feb-11 06:31N 47°39' W 122°23'0 0.0
2014-Feb-11 05:31N 47°39' W 122°23'0 0.0
2014-Feb-11 04:31N 47°39' W 122°23'0 0.0
2014-Feb-11 03:31N 47°39' W 122°23'0 0.0
2014-Feb-11 02:31N 47°39' W 122°23'0 0.0
2014-Feb-11 01:31N 47°39' W 122°23'0 0.0
2014-Feb-11 00:31N 47°39' W 122°23'0 0.0
2014-Feb-10 23:31N 47°39' W 122°23'0 0.0
2014-Feb-10 22:28N 47°39' W 122°23'0 0.0
2014-Feb-10 21:31N 47°39' W 122°23'0 0.0
2014-Feb-10 19:31N 47°39' W 122°23'0 0.0
2014-Feb-10 18:31N 47°39' W 122°23'0 0.0
2014-Feb-10 17:31N 47°39' W 122°23'0 0.0
2014-Feb-10 16:31N 47°39' W 122°23'0 0.0
2014-Feb-10 15:31N 47°39' W 122°23'0 0.0
2014-Feb-10 14:31N 47°39' W 122°23'0 0.0
2014-Feb-10 13:31N 47°39' W 122°23'0 0.0
2014-Feb-10 12:31N 47°39' W 122°23'0 0.0
2014-Feb-10 11:31N 47°39' W 122°23'0 0.0
2014-Feb-10 10:31N 47°39' W 122°23'0 0.0
2014-Feb-10 09:31N 47°39' W 122°23'0 0.0
2014-Feb-10 08:25N 47°39' W 122°23'0 0.0
2014-Feb-10 07:31N 47°39' W 122°23'0 0.0
2014-Feb-10 06:31N 47°39' W 122°23'0 0.0
2014-Feb-10 05:31N 47°39' W 122°23'0 0.0
2014-Feb-10 04:31N 47°39' W 122°23'0 0.0
2014-Feb-10 03:31N 47°39' W 122°23'0 0.0
2014-Feb-10 02:31N 47°39' W 122°23'0 0.0
2014-Feb-10 01:31N 47°39' W 122°23'0 0.0
2014-Feb-10 00:31N 47°39' W 122°23'0 0.0
2014-Feb-09 23:31N 47°39' W 122°23'0 0.0
2014-Feb-09 22:31N 47°39' W 122°23'0 0.0
2014-Feb-09 21:31N 47°39' W 122°23'0 0.0
2014-Feb-08 10:31N 47°39' W 122°23'0 0.0
2014-Feb-08 09:31N 47°39' W 122°23'0 0.0
2014-Feb-08 08:31N 47°39' W 122°23'0 0.0
2014-Feb-08 07:28N 47°39' W 122°23'0 0.0
2014-Feb-08 05:31N 47°39' W 122°23'0 0.0
2014-Feb-08 04:31N 47°39' W 122°23'0 0.0
2014-Feb-08 03:31N 47°39' W 122°23'0 0.0
2014-Feb-08 02:31N 47°39' W 122°23'0 0.0
2014-Feb-08 01:31N 47°39' W 122°23'0 0.0
2014-Feb-08 00:31N 47°39' W 122°23'0 0.0
2014-Feb-07 23:31N 47°39' W 122°23'0 0.0
2014-Feb-07 22:31N 47°39' W 122°23'0 0.0
2014-Feb-07 21:28N 47°39' W 122°23'0 0.0
2014-Feb-07 20:31N 47°39' W 122°23'0 0.0
2014-Feb-07 19:31N 47°39' W 122°23'0 0.0
2014-Feb-07 18:30N 47°39' W 122°23'  

Dump ship's entire track history

sailing weather and tide predictions

Forum Star — WDC8278 — position and weather